• Join FlightAware (Why Join?)
  • Login
  • US Flag 
04:06AM EDT


 

Airport Tracker/Info


-or-


 

Live Flight TrackerFlight Track Log ✈ SWA2523 ✈ 26-May-2014 ✈ KLAS - KMDW

Flight Track Log - Related Links

Times and Time Zones

All times are in EDT time to prevent confusion due to time zone crossing. See the SWA2523 flight status page for this flight to view local times or setup timezone preferences in your user account.

Time Position Orientation Groundspeed Altitude Reporting Facility
EDT Latitude Longitude Course Direction KTS MPH feet Rate Location/Type
08:24PM 36.0753 -115.1047 90° East 167 192 3,500  Level Los Angeles Center
08:25PM 36.0753 -115.0461 90° East 204 235 4,700 1,620 Climbing Los Angeles Center
08:26PM 36.0764 -114.9639 89° East 252 290 6,500 2,220 Climbing Los Angeles Center
08:27PM 36.0892 -114.8742 80° East 288 331 9,100 2,040 Climbing Los Angeles Center
08:28PM 36.1067 -114.7664 79° East 312 359 10,800 2,400 Climbing Los Angeles Center
08:29PM 36.1322 -114.6178 78° East 362 417 14,100 3,000 Climbing Los Angeles Center
08:30PM 36.1525 -114.4908 79° East 374 430 17,000 2,640 Climbing Los Angeles Center
08:31PM 36.1753 -114.3592 78° East 385 443 19,700 2,280 Climbing Los Angeles Center
08:32PM 36.1961 -114.2217 79° East 400 460 21,800 1,860 Climbing Los Angeles Center
08:33PM 36.2131 -114.0764 82° East 420 483 23,600 1,800 Climbing Los Angeles Center
08:34PM 36.2319 -113.9256 81° East 436 502 25,600 1,740 Climbing Los Angeles Center
08:35PM 36.2539 -113.7392 82° East 451 519 27,200 1,500 Climbing Los Angeles Center
08:36PM 36.2728 -113.5767 82° East 471 542 28,800 1,740 Climbing Los Angeles Center
08:37PM 36.2914 -113.4131 82° East 479 551 30,900 1,680 Climbing Los Angeles Center
08:38PM 36.3128 -113.2369 81° East 477 549 32,400 1,440 Climbing Los Angeles Center
08:39PM 36.3636 -113.0864 67° East 476 548 33,900 1,500 Climbing Los Angeles Center
08:40PM 36.4181 -112.9392 65° Northeast 475 547 35,600 1,440 Climbing Los Angeles Center
08:41PM 36.4711 -112.7956 65° Northeast 465 535 36,900 660 Climbing Los Angeles Center
08:42PM 36.5236 -112.6517 66° East 462 532 37,000  Climbing Los Angeles Center
08:43PM 36.5872 -112.4792 65° Northeast 462 532 37,000  Level Los Angeles Center
08:44PM 36.6397 -112.3344 66° East 461 531 37,000  Level Los Angeles Center
08:45PM 36.6933 -112.1881 65° Northeast 464 534 37,000  Level Los Angeles Center
08:46PM 36.7464 -112.0392 66° East 466 536 37,000  Level Los Angeles Center
08:47PM 36.8000 -111.8900 66° East 473 544 37,000  Level Los Angeles Center
08:48PM 36.8631 -111.7125 66° East 471 542 37,000  Level Los Angeles Center
08:49PM 36.9158 -111.5639 66° East 471 542 37,000  Level Los Angeles Center
08:50PM 36.9686 -111.4161 66° East 470 541 37,000  Level Los Angeles Center
08:51PM 37.0208 -111.2692 66° East 470 541 37,000  Level Los Angeles Center
08:53PM 37.0719 -111.1214 67° East 469 540 37,000  Level Los Angeles Center
08:54PM 37.1528 -110.8864 67° East 464 534 37,000  Level Denver Center
08:55PM 37.2042 -110.7400 66° East 461 531 37,000  Level Denver Center
08:56PM 37.2539 -110.5925 67° East 461 531 37,000  Level Denver Center
08:57PM 37.3039 -110.4464 67° East 460 529 37,000  Level Denver Center
08:58PM 37.3536 -110.3019 67° East 454 522 37,000  Level Denver Center
08:59PM 37.4064 -110.1478 67° East 454 522 37,000  Level Denver Center
09:00PM 37.4600 -109.9847 67° East 453 521 37,000  Level Denver Center
09:01PM 37.5078 -109.8450 67° East 453 521 37,000  Level Denver Center
09:02PM 37.5617 -109.6825 67° East 452 520 37,000  Level Denver Center
09:03PM 37.6078 -109.5453 67° East 446 513 37,000  Level Denver Center
09:04PM 37.6617 -109.3811 67° East 452 520 37,000  Level Denver Center
09:05PM 37.7067 -109.2428 68° East 450 518 37,000  Level Denver Center
09:06PM 37.7517 -109.1058 67° East 446 513 37,000  Level Denver Center
09:07PM 37.8050 -108.9431 67° East 446 513 37,000  Level Denver Center
09:08PM 37.8517 -108.8075 66° East 442 509 37,000  Level Denver Center
09:09PM 37.9072 -108.6472 66° East 443 510 37,000  Level Denver Center
09:10PM 37.9547 -108.5125 66° East 442 509 37,000  Level Denver Center
09:11PM 38.0014 -108.3769 66° East 442 509 37,000  Level Denver Center
09:12PM 38.0558 -108.2194 66° East 440 506 37,000  Level Denver Center
09:14PM 38.1044 -108.0750 67° East 440 506 37,000  Level Denver Center
09:15PM 38.1503 -107.9406 67° East 437 503 37,000  Level Denver Center
09:16PM 38.2033 -107.7847 67° East 435 501 37,000  Level Denver Center
09:17PM 38.2483 -107.6508 67° East 433 498 37,000  Level Denver Center
09:18PM 38.3003 -107.4942 67° East 432 497 37,000  Level Denver Center
09:19PM 38.3450 -107.3617 67° East 431 496 37,000  Level Denver Center
09:20PM 38.3975 -107.2067 67° East 431 496 37,000  Level Denver Center
09:21PM 38.4372 -107.0833 68° East 426 490 37,000  Level Denver Center
09:22PM 38.4725 -106.9389 73° East 427 491 37,000  Level Denver Center
09:23PM 38.5006 -106.7919 76° East 426 490 37,000  Level Denver Center
09:24PM 38.5350 -106.6175 76° East 425 489 37,000  Level Denver Center
09:25PM 38.5631 -106.4725 76° East 421 484 37,000  Level Denver Center
09:26PM 38.5911 -106.3272 76° East 422 486 37,000  Level Denver Center
09:27PM 38.6228 -106.1656 76° East 423 487 37,000  Level Denver Center
09:28PM 38.6489 -106.0364 75° East 425 489 37,000  Level Denver Center
09:29PM 38.6756 -105.8889 77° East 425 489 37,000  Level Denver Center
09:30PM 38.7089 -105.7156 76° East 423 487 37,000  Level Denver Center
09:31PM 38.7356 -105.5706 77° East 423 487 37,000  Level Denver Center
09:32PM 38.7622 -105.4253 77° East 423 487 37,000  Level Denver Center
09:33PM 38.7892 -105.2806 77° East 422 486 37,000  Level Denver Center
09:34PM 38.8158 -105.1369 77° East 421 484 37,000  Level Denver Center
09:35PM 38.8417 -104.9922 77° East 420 483 37,000  Level Denver Center
09:36PM 38.8739 -104.8158 77° East 421 484 37,000  Level Denver Center
09:37PM 38.8997 -104.6689 77° East 424 488 37,000  Level Denver Center
09:38PM 38.9261 -104.5242 77° East 423 487 37,000  Level Denver Center
09:39PM 38.9519 -104.3797 77° East 422 486 37,000  Level Denver Center
09:40PM 38.9758 -104.2353 78° East 417 480 37,000  Level Denver Center
09:41PM 39.0006 -104.0906 78° East 417 480 37,100 600 Climbing Denver Center
09:42PM 39.0317 -103.9125 77° East 426 490 38,300 900 Climbing Denver Center
09:43PM 39.0569 -103.7669 77° East 425 489 39,000 300 Climbing Denver Center
09:44PM 39.0803 -103.6167 79° East 425 489 39,000  Level Denver Center
09:45PM 39.1067 -103.4672 77° East 428 493 39,000  Level Denver Center
09:46PM 39.1325 -103.3150 78° East 432 497 39,000  Level Denver Center
09:47PM 39.1575 -103.1614 78° East 439 505 39,000  Level Denver Center
09:48PM 39.1822 -103.0075 78° East 439 505 39,000  Level Denver Center
09:50PM 39.2119 -102.8242 78° East 439 505 39,000  Level Denver Center
09:51PM 39.2347 -102.6689 79° East 439 505 39,000  Level Denver Center
09:52PM 39.2594 -102.5219 78° East 438 504 39,000  Level Denver Center
09:53PM 39.2872 -102.3497 78° East 438 504 39,000  Level Denver Center
09:54PM 39.3092 -102.2022 79° East 438 504 39,000  Level Denver Center
09:55PM 39.3333 -102.0444 79° East 440 506 39,000  Level Denver Center
09:56PM 39.3603 -101.8711 79° East 441 507 39,000  Level Denver Center
09:57PM 39.3836 -101.7222 78° East 442 509 39,000  Level Denver Center
09:58PM 39.4086 -101.5717 78° East 444 511 39,000  Level Denver Center
09:59PM 39.4392 -101.3961 77° East 449 517 39,000  Level Denver Center
10:00PM 39.4653 -101.2450 77° East 449 517 39,000  Level Denver Center
10:01PM 39.4939 -101.0686 78° East 450 518 39,000  Level Denver Center
10:02PM 39.5194 -100.9147 78° East 454 522 39,000  Level Denver Center
10:03PM 39.5486 -100.7406 78° East 449 517 39,000  Level Denver Center
10:04PM 39.5728 -100.5922 78° East 444 511 39,000  Level Denver Center
10:05PM 39.6017 -100.4181 78° East 444 511 39,000  Level Denver Center
10:06PM 39.6244 -100.2697 79° East 443 510 39,000  Level Denver Center
10:07PM 39.6519 -100.0975 78° East 439 505 39,000  Level Denver Center
10:08PM 39.6767 -99.9489 78° East 439 505 39,000  Level Denver Center
10:09PM 39.6997 -99.7961 79° East 440 506 39,000  Level Denver Center
10:10PM 39.7242 -99.6361 79° East 448 516 39,000  Level Denver Center
10:11PM 39.7486 -99.4769 79° East 448 516 39,000  Level Denver Center
10:12PM 39.7783 -99.2833 79° East 453 521 39,000  Level Denver Center
10:13PM 39.8025 -99.1239 79° East 453 521 39,000  Level Denver Center
10:14PM 39.8261 -98.9633 79° East 453 521 39,000  Level Denver Center
10:15PM 39.8494 -98.8044 79° East 453 521 39,000  Level Denver Center
10:16PM 39.8733 -98.6444 79° East 453 521 39,000  Level Denver Center
10:17PM 39.8958 -98.4875 79° East 449 517 39,000  Level Denver Center
10:19PM 39.9325 -98.2306 79° East 451 519 39,000  Level Minneapolis Center
10:20PM 39.9550 -98.0678 80° East 453 521 39,000  Level Minneapolis Center
10:21PM 39.9775 -97.9067 80° East 454 522 39,000  Level Minneapolis Center
10:22PM 40.0003 -97.7450 80° East 454 522 39,000  Level Minneapolis Center
10:23PM 40.0222 -97.5814 80° East 455 524 39,000  Level Minneapolis Center
10:24PM 40.0442 -97.4181 80° East 455 524 39,000  Level Minneapolis Center
10:25PM 40.0644 -97.2628 80° East 456 525 39,000  Level Minneapolis Center
10:26PM 40.0867 -97.0994 80° East 456 525 39,000  Level Minneapolis Center
10:27PM 40.1078 -96.9344 80° East 459 528 39,000  Level Minneapolis Center
10:28PM 40.1333 -96.7386 80° East 459 528 39,000  Level Minneapolis Center
10:29PM 40.1533 -96.5739 81° East 459 528 39,000  Level Minneapolis Center
10:30PM 40.1756 -96.4094 80° East 459 528 39,000  Level Minneapolis Center
10:31PM 40.1958 -96.2458 81° East 459 528 39,000  Level Minneapolis Center
10:32PM 40.2308 -96.0836 74° East 462 532 39,000  Level Minneapolis Center
10:33PM 40.2728 -95.9206 71° East 469 540 39,000  Level Minneapolis Center
10:34PM 40.3142 -95.7567 72° East 473 544 39,000  Level Minneapolis Center
10:35PM 40.3544 -95.5933 72° East 473 544 39,000  Level Minneapolis Center
10:36PM 40.3953 -95.4286 72° East 473 544 39,000  Level Minneapolis Center
10:37PM 40.4353 -95.2650 72° East 474 545 39,000  Level Minneapolis Center
10:38PM 40.4839 -95.0628 72° East 480 552 39,000  Level Minneapolis Center
10:39PM 40.5236 -94.8967 72° East 480 552 39,000  Level Minneapolis Center
10:40PM 40.5650 -94.7297 72° East 480 552 39,000  Level Minneapolis Center
10:41PM 40.6064 -94.5542 73° East 481 554 39,000  Level Minneapolis Center
10:42PM 40.6469 -94.3836 73° East 487 560 39,000  Level Minneapolis Center
10:43PM 40.6875 -94.2128 73° East 488 562 39,000  Level Minneapolis Center
10:44PM 40.7278 -94.0406 73° East 490 564 39,000  Level Minneapolis Center
10:45PM 40.7678 -93.8692 73° East 492 566 39,000  Level Minneapolis Center
10:47PM 40.8422 -93.5278 74° East 488 562 39,000  Level Chicago Center
10:48PM 40.8567 -93.3536 84° East 482 555 39,000 -180 Level Chicago Center
10:49PM 40.8728 -93.1792 83° East 481 554 38,700 -720 Descending Chicago Center
10:50PM 40.8917 -92.9722 83° East 480 552 37,600 -960 Descending Minneapolis Center
10:51PM 40.9064 -92.8000 83° East 479 551 36,700 -960 Descending Minneapolis Center
10:52PM 40.9206 -92.6272 84° East 474 545 35,700 -900 Descending Chicago Center
10:53PM 40.9342 -92.4519 84° East 477 549 35,000 -720 Descending Chicago Center
10:54PM 40.9492 -92.2789 83° East 477 549 34,300 -840 Descending Chicago Center
10:55PM 40.9619 -92.1036 84° East 477 549 33,400 -900 Descending Chicago Center
10:56PM 40.9758 -91.9303 84° East 477 549 32,500 -960 Descending Chicago Center
10:57PM 40.9903 -91.7550 84° East 477 549 31,500 -1,020 Descending Chicago Center
10:58PM 41.0033 -91.5789 84° East 479 551 30,500 -1,020 Descending Chicago Center
10:59PM 41.0147 -91.4061 85° East 478 550 29,500 -1,020 Descending Chicago Center
11:00PM 41.0275 -91.2364 84° East 468 539 28,500 -1,020 Descending Chicago Center
11:01PM 41.0394 -91.0703 85° East 461 531 27,500 -1,140 Descending Chicago Center
11:02PM 41.0533 -90.8750 85° East 447 514 26,200 -1,140 Descending Chicago Center
11:03PM 41.0636 -90.7128 85° East 444 511 25,200 -1,020 Descending Chicago Center
11:05PM 41.0772 -90.5539 83° East 438 504 24,200 -1,020 Descending Chicago Center
11:06PM 41.0897 -90.3967 84° East 434 499 23,200 -1,020 Descending Chicago Center
11:07PM 41.1019 -90.2419 84° East 424 488 22,200 -1,140 Descending Chicago Center
11:08PM 41.1133 -90.0928 84° East 408 470 21,000 -1,140 Descending Chicago Center
11:09PM 41.1239 -89.9422 85° East 407 468 20,000 -1,020 Descending Chicago Center
11:10PM 41.1350 -89.7936 84° East 406 467 19,000 -1,020 Descending Chicago Center
11:11PM 41.1453 -89.6461 85° East 402 463 18,000 -1,020 Descending Chicago Center
11:12PM 41.1536 -89.4994 86° East 400 460 17,000 -1,020 Descending Chicago Center
11:13PM 41.1631 -89.3561 85° East 395 455 16,000 -1,140 Descending Chicago Center
11:14PM 41.1717 -89.2142 85° East 390 449 14,700 -1,380 Descending Chicago Center
11:15PM 41.2058 -89.0900 70° East 374 430 13,200 -1,680 Descending Chicago Center
11:16PM 41.2603 -88.9753 58° Northeast 369 425 11,300 -1,620 Descending Chicago Center
11:17PM 41.3039 -88.8331 68° East 361 415 10,000 -1,320 Descending Chicago Center
11:18PM 41.3267 -88.7233 75° East 315 362 8,700 -1,380 Descending Chicago Center
11:19PM 41.3506 -88.6156 74° East 309 356 7,300 -1,380 Descending Chicago Center
11:20PM 41.3744 -88.5092 73° East 304 350 6,000 -660 Descending Chicago Center
11:21PM 41.4239 -88.4250 52° Northeast 292 336 6,000  Level Chicago Center
11:22PM 41.4647 -88.3258 61° Northeast 286 329 6,000  Level Chicago Center
11:23PM 41.4906 -88.2239 71° East 290 334 6,000 -480 Level Chicago Center
11:24PM 41.5186 -88.1214 70° East 295 339 5,100 -960 Descending Chicago Center
11:25PM 41.5456 -88.0186 71° East 297 342 4,100 -600 Descending Chicago Center
11:26PM 41.5717 -87.9189 71° East 294 338 4,000 -300 Descending Chicago Center
11:27PM 41.5994 -87.8133 71° East 286 329 3,500 -540 Descending Chicago Center
11:28PM 41.6217 -87.7269 71° East 253 291 3,000 -600 Descending Chicago Center
11:29PM 41.6669 -87.6669 45° Northeast 236 272 2,400 -360 Descending Chicago Center
11:30PM 41.7172 -87.6619 North 180 207 2,300 -420 Descending Chicago Center
11:31PM 41.7456 -87.6989 316° Northwest 146 168 1,600 -780 Descending Chicago Center
11:32PM 41.7733 -87.7367 315° West 144 166 800 -480 Descending Chicago Center
11:33PM 41.7972 -87.7733 311° West 144 166 700 -120 Descending Chicago Center